createdAt,value
2023-03-21T00:01:56.239Z,10.08709
2023-03-21T00:06:57.836Z,9.65547
2023-03-21T00:11:59.534Z,10.32338
2023-03-21T00:17:01.276Z,10.32465
2023-03-21T00:22:07.994Z,10.84964
2023-03-21T00:27:34.618Z,10.30623
2023-03-21T00:32:55.252Z,8.92024
2023-03-21T00:37:57.782Z,9.82697
2023-03-21T00:42:59.397Z,9.692
2023-03-21T00:48:01.258Z,9.76885
2023-03-21T00:53:02.906Z,9.23529
2023-03-21T00:58:04.529Z,9.35788
2023-03-21T01:03:17.548Z,9.30485
2023-03-21T01:08:29.356Z,9.03584
2023-03-21T01:13:34.563Z,7.6197
2023-03-21T01:18:38.183Z,6.83812
2023-03-21T01:23:39.973Z,7.21763
2023-03-21T01:28:41.637Z,6.34776
2023-03-21T01:33:43.277Z,6.12514
2023-03-21T01:38:44.949Z,5.19621
2023-03-21T01:43:46.597Z,6.64185
2023-03-21T01:48:48.245Z,6.10957
2023-03-21T01:53:50.039Z,5.71164
2023-03-21T01:58:51.640Z,5.43757
2023-03-21T02:03:53.283Z,4.21648
2023-03-21T02:08:54.925Z,5.3604
2023-03-21T02:14:06.411Z,5.61859
2023-03-21T02:19:08.918Z,5.54809
2023-03-21T02:24:10.563Z,5.78215
2023-03-21T02:29:12.166Z,4.49531
2023-03-21T02:34:13.841Z,3.98337
2023-03-21T02:39:15.522Z,4.21266
2023-03-21T02:44:17.157Z,4.84306
2023-03-21T02:49:18.932Z,5.18922
2023-03-21T02:54:34.989Z,4.73603
2023-03-21T02:59:51.580Z,4.5963
2023-03-21T03:04:55.386Z,4.15868
2023-03-21T03:09:57.028Z,4.5096
2023-03-21T03:15:03.464Z,3.60387
2023-03-21T03:20:15.662Z,3.43079
2023-03-21T03:25:25.020Z,3.56862
2023-03-21T03:30:41.205Z,2.78358
2023-03-21T03:35:48.272Z,3.81252
2023-03-21T03:40:55.015Z,3.63595
2023-03-21T03:45:56.622Z,3.53782
2023-03-21T03:50:58.236Z,2.29325
2023-03-21T03:56:00.010Z,2.6032
2023-03-21T04:01:01.687Z,2.85154
2023-03-21T04:06:03.296Z,2.56255
2023-03-21T04:11:04.915Z,2.15638
2023-03-21T04:16:06.624Z,2.21417
2023-03-21T04:21:08.232Z,1.61873
2023-03-21T04:26:09.903Z,1.92963
2023-03-21T04:31:24.549Z,1.05378
2023-03-21T04:36:27.063Z,1.68288
2023-03-21T04:41:28.742Z,1.08617
2023-03-21T04:46:30.386Z,1.2475
2023-03-21T04:51:32.013Z,2.2815
2023-03-21T04:56:33.672Z,1.97504
2023-03-21T05:01:35.309Z,1.19256
2023-03-21T05:06:36.998Z,1.43518
2023-03-21T05:11:38.645Z,1.58952
2023-03-21T05:16:40.275Z,1.98838
2023-03-21T05:21:42.236Z,1.38722
2023-03-21T05:26:43.891Z,1.08554
2023-03-21T05:31:45.528Z,-0.5731
2023-03-21T05:36:47.226Z,0.53996
2023-03-21T05:41:48.931Z,0.70287
2023-03-21T05:46:50.861Z,0.31735
2023-03-21T05:51:52.651Z,0.70636
2023-03-21T05:56:54.292Z,0.64952
2023-03-21T06:01:55.906Z,0.28051
2023-03-21T06:06:57.552Z,-0.36382
2023-03-21T06:11:59.334Z,-0.32635
2023-03-21T06:17:00.944Z,-0.65122
2023-03-21T06:22:02.657Z,-0.09263
2023-03-21T06:27:04.393Z,0.0598
2023-03-21T06:32:06.094Z,-0.07611
2023-03-21T06:37:07.761Z,-0.12883
2023-03-21T06:42:09.671Z,-0.46354
2023-03-21T06:47:11.291Z,-0.30412
2023-03-21T06:52:12.929Z,-0.43813
2023-03-21T06:57:14.570Z,-0.94051
2023-03-21T07:02:16.378Z,-1.09294
2023-03-21T07:07:18.010Z,-0.30666
2023-03-21T07:12:19.773Z,-0.45084
2023-03-21T07:17:21.385Z,-0.43051
2023-03-21T07:22:23.022Z,-1.04245
2023-03-21T07:27:24.754Z,-1.73599
2023-03-21T07:32:26.365Z,-1.31936
2023-03-21T07:37:27.991Z,-1.88493
2023-03-21T07:42:29.611Z,-1.05579
2023-03-21T07:47:31.240Z,-1.84841
2023-03-21T07:52:33.070Z,-1.56166
2023-03-21T07:57:34.893Z,-1.99734
2023-03-21T08:02:36.553Z,-2.05006
2023-03-21T08:07:38.248Z,-1.40955
2023-03-21T08:12:39.892Z,-1.25077
2023-03-21T08:17:41.492Z,-0.9945
2023-03-21T08:22:43.130Z,-1.23457
2023-03-21T08:27:44.747Z,-2.13294
2023-03-21T08:32:46.395Z,-1.54641
2023-03-21T08:37:48.199Z,-1.54927
2023-03-21T08:42:49.820Z,-1.44194
2023-03-21T08:47:51.597Z,-1.68391
2023-03-21T08:52:53.306Z,-1.9297
2023-03-21T08:57:54.906Z,-2.59212
2023-03-21T09:02:56.564Z,-2.23392
2023-03-21T09:07:58.167Z,-1.74012
2023-03-21T09:12:59.780Z,-1.77823
2023-03-21T09:18:01.358Z,-1.70583
2023-03-21T09:23:03.048Z,-2.55528
2023-03-21T09:28:04.667Z,-1.97638
2023-03-21T09:33:06.392Z,-1.8808
2023-03-21T09:38:08.088Z,-2.3041
2023-03-21T09:43:09.756Z,-2.97382
2023-03-21T09:48:11.890Z,-2.7636
2023-03-21T09:53:14.623Z,-2.61562
2023-03-21T09:58:16.565Z,-1.83507
2023-03-21T10:03:18.249Z,-1.99448
2023-03-21T10:08:19.978Z,-1.95701
2023-03-21T10:13:21.645Z,-2.58768
2023-03-21T10:18:23.320Z,-2.76423
2023-03-21T10:23:25.021Z,-2.43049
2023-03-21T10:28:26.676Z,-2.16565
2023-03-21T10:33:28.262Z,-2.53909
2023-03-21T10:38:30.118Z,-3.05765
2023-03-21T10:43:31.743Z,-2.3276
2023-03-21T10:48:33.487Z,-3.09989
2023-03-21T10:53:35.174Z,-3.2231
2023-03-21T10:58:36.844Z,-3.41934
2023-03-21T11:03:38.474Z,-3.34504
2023-03-21T11:08:40.088Z,-3.54223
2023-03-21T11:13:41.696Z,-2.69215
2023-03-21T11:18:43.352Z,-3.00018
2023-03-21T11:23:45.013Z,-2.81091
2023-03-21T11:28:46.699Z,-2.60101
2023-03-21T11:33:48.292Z,-3.08401
2023-03-21T11:38:49.925Z,-2.89729
2023-03-21T11:43:51.773Z,-3.22405
2023-03-21T11:48:53.595Z,-2.94778
2023-03-21T11:53:55.220Z,-3.25771
2023-03-21T11:58:56.887Z,-3.57335
2023-03-21T12:03:58.617Z,-3.31709
2023-03-21T12:09:00.312Z,-3.75944
2023-03-21T12:14:01.941Z,-3.55494
2023-03-21T12:19:03.583Z,-3.15959
2023-03-21T12:24:05.210Z,-3.8709
2023-03-21T12:29:06.842Z,-3.3444
2023-03-21T12:34:08.485Z,-3.20881
2023-03-21T12:39:10.095Z,-3.42379
2023-03-21T12:44:11.732Z,-4.49964
2023-03-21T12:49:13.346Z,-3.97061
2023-03-21T12:54:15.234Z,-3.8166
2023-03-21T12:59:16.840Z,-4.44439
2023-03-21T13:04:18.593Z,-4.41549
2023-03-21T13:09:28.394Z,-4.07699
2023-03-21T13:14:33.597Z,-4.22338
2023-03-21T13:19:35.236Z,-4.45391
2023-03-21T13:24:37.184Z,-4.06079
2023-03-21T13:29:38.838Z,-3.99157
2023-03-21T13:34:40.467Z,-3.45396
2023-03-21T13:39:42.046Z,-3.72419
2023-03-21T13:44:43.636Z,-3.47618
2023-03-21T13:49:45.271Z,-3.20277
2023-03-21T13:54:47.021Z,-3.43998
2023-03-21T13:59:48.646Z,-3.49428
2023-03-21T14:05:04.078Z,-3.45046
2023-03-21T14:10:06.880Z,-3.68577
2023-03-21T14:15:16.269Z,-3.57748
2023-03-21T14:20:18.470Z,-3.00938
2023-03-21T14:25:20.096Z,-3.775
2023-03-21T14:30:21.977Z,-3.58161
2023-03-21T14:35:23.627Z,-3.84708
2023-03-21T14:40:25.245Z,-3.71117
2023-03-21T14:45:26.959Z,-3.35424
2023-03-21T14:50:28.568Z,-4.23131
2023-03-21T14:55:30.180Z,-1.64803
2023-03-21T15:00:31.796Z,0.29385
2023-03-21T15:05:33.444Z,0.6943
2023-03-21T15:10:35.029Z,0.77623
2023-03-21T15:15:36.896Z,0.51614
2023-03-21T15:20:38.637Z,0.67937
2023-03-21T15:25:40.671Z,0.16079
2023-03-21T15:30:42.501Z,-0.64391
2023-03-21T15:35:44.413Z,-0.15042
2023-03-21T15:40:46.102Z,-0.82206
2023-03-21T15:45:48.285Z,-0.12025
2023-03-21T15:50:49.917Z,0.27321
2023-03-21T15:55:51.567Z,0.85117
2023-03-21T16:00:55.263Z,0.43103
2023-03-21T16:05:57.408Z,0.39166
2023-03-21T16:10:59.236Z,0.12649
2023-03-21T16:16:00.867Z,0.45263
2023-03-21T16:21:02.537Z,1.31704
2023-03-21T16:26:04.219Z,1.55458
2023-03-21T16:31:05.879Z,1.63461
2023-03-21T16:36:07.595Z,3.15133
2023-03-21T16:41:09.207Z,3.62991
2023-03-21T16:46:10.855Z,2.85376
2023-03-21T16:51:12.439Z,4.27142
2023-03-21T16:56:14.130Z,4.23363
2023-03-21T17:01:15.909Z,3.14498
2023-03-21T17:06:17.585Z,3.19484
2023-03-21T17:11:19.253Z,4.9631
2023-03-21T17:16:20.946Z,4.95834
2023-03-21T17:21:22.565Z,5.31752
2023-03-21T17:26:24.220Z,5.44805
2023-03-21T17:31:25.991Z,5.08569
2023-03-21T17:36:27.647Z,5.33912
2023-03-21T17:41:29.248Z,5.58747
2023-03-21T17:46:30.931Z,6.66535
2023-03-21T17:51:32.588Z,6.91021
2023-03-21T17:56:34.182Z,6.9118
2023-03-21T18:01:36.016Z,7.39643
2023-03-21T18:06:37.665Z,8.53881
2023-03-21T18:11:39.296Z,8.57533
2023-03-21T18:16:41.086Z,8.52102
2023-03-21T18:21:44.955Z,8.59534
2023-03-21T18:26:46.878Z,8.30792
2023-03-21T18:32:04.424Z,8.18977
2023-03-21T18:37:07.968Z,7.79533
2023-03-21T18:42:16.714Z,7.94841
2023-03-21T18:47:19.537Z,8.64076
2023-03-21T18:52:21.131Z,8.3257
2023-03-21T18:57:38.197Z,9.04632
2023-03-21T19:02:45.493Z,8.60614
2023-03-21T19:07:48.589Z,8.68077
2023-03-21T19:12:50.228Z,8.94501
2023-03-21T19:18:30.778Z,8.48323
2023-03-21T19:24:08.004Z,8.68204
2023-03-21T19:29:25.136Z,8.67093
2023-03-21T19:34:26.888Z,10.12552
2023-03-21T19:39:28.509Z,10.15855
2023-03-21T19:44:30.200Z,9.43824
2023-03-21T19:50:00.733Z,9.02886
2023-03-21T19:55:17.611Z,9.85334
2023-03-21T20:00:19.217Z,10.0909
2023-03-21T20:05:21.025Z,11.44483
2023-03-21T20:10:22.705Z,11.15867
2023-03-21T20:15:26.846Z,12.66666
2023-03-21T20:20:30.573Z,12.70191
2023-03-21T20:25:32.240Z,13.11893
2023-03-21T20:30:33.921Z,12.7216
2023-03-21T20:36:24.066Z,12.34016
2023-03-21T20:41:34.593Z,12.34651
2023-03-21T20:46:37.684Z,11.94569
2023-03-21T20:57:11.536Z,14.61076
2023-03-21T21:02:13.372Z,15.07289
2023-03-21T21:07:15.140Z,13.89994
2023-03-21T21:12:16.920Z,13.10496
2023-03-21T21:17:40.667Z,12.75178
2023-03-21T21:23:00.097Z,13.57693
2023-03-21T21:28:02.418Z,12.99157
2023-03-21T21:33:04.048Z,11.76275
2023-03-21T21:38:05.737Z,12.63299
2023-03-21T21:43:07.479Z,13.28885
2023-03-21T21:48:09.244Z,12.60155
2023-03-21T21:53:10.944Z,12.23122
2023-03-21T21:58:12.821Z,12.41861
2023-03-21T22:03:14.563Z,12.4383
2023-03-21T22:08:16.209Z,14.47323
2023-03-21T22:13:17.858Z,13.2247
2023-03-21T22:18:19.487Z,12.59647
2023-03-21T22:23:21.116Z,12.65713
2023-03-21T22:28:22.907Z,12.31348
2023-03-21T22:33:24.599Z,13.00301
2023-03-21T22:38:26.226Z,13.6738
2023-03-21T22:43:27.892Z,13.76527
2023-03-21T22:48:29.589Z,14.23756
2023-03-21T22:53:31.254Z,15.3219
2023-03-21T22:58:32.933Z,13.83991
2023-03-21T23:03:34.585Z,14.21501
2023-03-21T23:08:36.239Z,14.77877
2023-03-21T23:13:37.914Z,13.46417
2023-03-21T23:18:39.623Z,12.67682
2023-03-21T23:23:41.293Z,12.84769
2023-03-21T23:28:42.963Z,13.04779
2023-03-21T23:33:44.808Z,13.15387
2023-03-21T23:38:46.674Z,14.55708
2023-03-21T23:43:48.337Z,14.38334
2023-03-21T23:48:49.998Z,15.02524
2023-03-21T23:53:51.659Z,15.06495
2023-03-21T23:58:54.033Z,15.42893
